sensor_id;sensor_type;location;lat;lon;timestamp;temperature;humidity
802;DHT22;383;48.766;9.270;2022-11-14T00:00:12;3.90;99.90
802;DHT22;383;48.766;9.270;2022-11-14T00:02:39;3.90;99.90
802;DHT22;383;48.766;9.270;2022-11-14T00:05:07;3.90;99.90
802;DHT22;383;48.766;9.270;2022-11-14T00:07:34;3.90;99.90
802;DHT22;383;48.766;9.270;2022-11-14T00:10:01;3.80;99.90
802;DHT22;383;48.766;9.270;2022-11-14T00:12:29;3.80;99.90
802;DHT22;383;48.766;9.270;2022-11-14T00:14:56;3.80;99.90
802;DHT22;383;48.766;9.270;2022-11-14T00:17:23;3.70;99.90
802;DHT22;383;48.766;9.270;2022-11-14T00:19:49;3.70;99.90
802;DHT22;383;48.766;9.270;2022-11-14T00:22:16;3.70;99.90
802;DHT22;383;48.766;9.270;2022-11-14T01:18:44;3.60;99.90
802;DHT22;383;48.766;9.270;2022-11-14T01:21:13;3.30;99.90
802;DHT22;383;48.766;9.270;2022-11-14T01:23:40;3.30;99.90
802;DHT22;383;48.766;9.270;2022-11-14T01:26:08;3.40;99.90
802;DHT22;383;48.766;9.270;2022-11-14T01:41:00;3.20;99.60
802;DHT22;383;48.766;9.270;2022-11-14T01:43:29;3.10;99.80
802;DHT22;383;48.766;9.270;2022-11-14T01:45:59;3.10;99.90
802;DHT22;383;48.766;9.270;2022-11-14T01:53:25;3.20;99.90
802;DHT22;383;48.766;9.270;2022-11-14T01:55:56;3.20;99.90
802;DHT22;383;48.766;9.270;2022-11-14T01:58:24;3.20;99.60
802;DHT22;383;48.766;9.270;2022-11-14T02:00:52;3.10;99.80
802;DHT22;383;48.766;9.270;2022-11-14T02:03:20;3.00;99.90
802;DHT22;383;48.766;9.270;2022-11-14T02:05:47;2.90;99.90
802;DHT22;383;48.766;9.270;2022-11-14T02:08:16;2.90;99.90
802;DHT22;383;48.766;9.270;2022-11-14T02:10:43;2.80;99.90
802;DHT22;383;48.766;9.270;2022-11-14T02:13:11;2.90;99.90
802;DHT22;383;48.766;9.270;2022-11-14T02:15:38;2.90;99.90
802;DHT22;383;48.766;9.270;2022-11-14T02:18:06;2.80;99.90
802;DHT22;383;48.766;9.270;2022-11-14T02:20:37;2.90;99.90
802;DHT22;383;48.766;9.270;2022-11-14T02:23:09;2.90;99.90
802;DHT22;383;48.766;9.270;2022-11-14T02:25:36;2.90;99.90
802;DHT22;383;48.766;9.270;2022-11-14T02:28:04;2.90;99.90
802;DHT22;383;48.766;9.270;2022-11-14T02:30:31;2.90;99.90
802;DHT22;383;48.766;9.270;2022-11-14T02:32:58;3.00;99.90
802;DHT22;383;48.766;9.270;2022-11-14T02:35:25;2.90;99.70
802;DHT22;383;48.766;9.270;2022-11-14T02:37:53;2.80;99.90
802;DHT22;383;48.766;9.270;2022-11-14T02:42:47;2.90;99.90
802;DHT22;383;48.766;9.270;2022-11-14T02:45:13;2.80;99.90
802;DHT22;383;48.766;9.270;2022-11-14T02:47:40;2.80;99.90
802;DHT22;383;48.766;9.270;2022-11-14T02:50:07;2.80;99.90
802;DHT22;383;48.766;9.270;2022-11-14T02:52:34;2.80;99.90
802;DHT22;383;48.766;9.270;2022-11-14T02:55:03;2.80;99.90
802;DHT22;383;48.766;9.270;2022-11-14T02:57:29;2.90;99.90
802;DHT22;383;48.766;9.270;2022-11-14T02:59:56;2.90;99.60
802;DHT22;383;48.766;9.270;2022-11-14T03:02:23;2.80;99.90
802;DHT22;383;48.766;9.270;2022-11-14T03:04:50;2.80;99.90
802;DHT22;383;48.766;9.270;2022-11-14T03:07:16;2.70;99.90
802;DHT22;383;48.766;9.270;2022-11-14T03:09:43;2.70;99.90
802;DHT22;383;48.766;9.270;2022-11-14T03:12:14;2.70;99.90
802;DHT22;383;48.766;9.270;2022-11-14T03:14:42;2.70;99.90
802;DHT22;383;48.766;9.270;2022-11-14T03:17:09;2.70;99.90
802;DHT22;383;48.766;9.270;2022-11-14T03:19:35;2.80;99.90
802;DHT22;383;48.766;9.270;2022-11-14T03:22:03;2.90;99.90
802;DHT22;383;48.766;9.270;2022-11-14T03:24:30;2.90;99.90
802;DHT22;383;48.766;9.270;2022-11-14T03:26:56;3.00;99.90
802;DHT22;383;48.766;9.270;2022-11-14T03:29:24;3.10;99.90
802;DHT22;383;48.766;9.270;2022-11-14T03:31:51;3.00;99.90
802;DHT22;383;48.766;9.270;2022-11-14T03:34:18;3.10;99.90
802;DHT22;383;48.766;9.270;2022-11-14T03:41:39;3.10;99.90
802;DHT22;383;48.766;9.270;2022-11-14T03:44:06;3.10;99.90
802;DHT22;383;48.766;9.270;2022-11-14T03:46:34;3.00;99.90
802;DHT22;383;48.766;9.270;2022-11-14T03:49:01;3.00;99.90
802;DHT22;383;48.766;9.270;2022-11-14T03:51:27;3.10;99.90
802;DHT22;383;48.766;9.270;2022-11-14T03:53:54;3.10;99.90
802;DHT22;383;48.766;9.270;2022-11-14T03:56:21;3.10;99.90
802;DHT22;383;48.766;9.270;2022-11-14T03:58:48;3.10;99.90
802;DHT22;383;48.766;9.270;2022-11-14T04:01:15;3.20;99.90
802;DHT22;383;48.766;9.270;2022-11-14T04:03:43;3.20;99.90
802;DHT22;383;48.766;9.270;2022-11-14T04:06:09;3.10;99.90
802;DHT22;383;48.766;9.270;2022-11-14T04:08:38;3.10;99.90
802;DHT22;383;48.766;9.270;2022-11-14T04:11:05;3.10;99.90
802;DHT22;383;48.766;9.270;2022-11-14T04:13:32;3.00;99.90
802;DHT22;383;48.766;9.270;2022-11-14T04:15:59;3.00;99.90
802;DHT22;383;48.766;9.270;2022-11-14T04:18:26;3.00;99.90
802;DHT22;383;48.766;9.270;2022-11-14T04:20:54;3.00;99.90
802;DHT22;383;48.766;9.270;2022-11-14T04:23:21;3.10;99.90
802;DHT22;383;48.766;9.270;2022-11-14T04:25:48;3.10;99.90
802;DHT22;383;48.766;9.270;2022-11-14T04:28:14;3.10;99.90
802;DHT22;383;48.766;9.270;2022-11-14T04:30:41;3.10;99.90
802;DHT22;383;48.766;9.270;2022-11-14T04:33:09;3.10;99.90
802;DHT22;383;48.766;9.270;2022-11-14T04:35:36;3.20;99.90
802;DHT22;383;48.766;9.270;2022-11-14T04:38:05;3.30;99.90
802;DHT22;383;48.766;9.270;2022-11-14T04:40:32;3.40;99.90
802;DHT22;383;48.766;9.270;2022-11-14T04:42:59;3.30;99.90
802;DHT22;383;48.766;9.270;2022-11-14T04:45:25;3.20;99.90
802;DHT22;383;48.766;9.270;2022-11-14T04:47:52;3.10;99.90
802;DHT22;383;48.766;9.270;2022-11-14T04:50:19;3.10;99.90
802;DHT22;383;48.766;9.270;2022-11-14T04:52:46;3.20;99.90
802;DHT22;383;48.766;9.270;2022-11-14T04:55:14;3.20;99.90
802;DHT22;383;48.766;9.270;2022-11-14T04:57:40;3.20;99.90
802;DHT22;383;48.766;9.270;2022-11-14T05:00:08;3.20;99.90
802;DHT22;383;48.766;9.270;2022-11-14T05:02:35;3.30;99.90
802;DHT22;383;48.766;9.270;2022-11-14T05:05:02;3.40;99.90
802;DHT22;383;48.766;9.270;2022-11-14T05:07:29;3.20;99.90
802;DHT22;383;48.766;9.270;2022-11-14T05:09:56;3.20;99.90
802;DHT22;383;48.766;9.270;2022-11-14T05:12:24;3.20;99.90
802;DHT22;383;48.766;9.270;2022-11-14T05:14:50;3.20;99.90
802;DHT22;383;48.766;9.270;2022-11-14T05:17:18;3.20;99.90
802;DHT22;383;48.766;9.270;2022-11-14T05:19:45;3.10;99.90
802;DHT22;383;48.766;9.270;2022-11-14T05:22:12;3.10;99.90
802;DHT22;383;48.766;9.270;2022-11-14T05:24:38;3.10;99.90
802;DHT22;383;48.766;9.270;2022-11-14T05:27:05;3.20;99.90
802;DHT22;383;48.766;9.270;2022-11-14T05:29:33;3.10;99.90
802;DHT22;383;48.766;9.270;2022-11-14T05:32:00;3.20;99.90
802;DHT22;383;48.766;9.270;2022-11-14T05:34:27;3.20;99.90
802;DHT22;383;48.766;9.270;2022-11-14T05:36:53;3.20;99.90
802;DHT22;383;48.766;9.270;2022-11-14T05:39:20;3.30;99.90
802;DHT22;383;48.766;9.270;2022-11-14T05:41:47;3.30;99.90
802;DHT22;383;48.766;9.270;2022-11-14T05:44:13;3.30;99.90
802;DHT22;383;48.766;9.270;2022-11-14T05:46:41;3.30;99.90
802;DHT22;383;48.766;9.270;2022-11-14T05:49:08;3.30;99.90
802;DHT22;383;48.766;9.270;2022-11-14T05:51:35;3.30;99.90
802;DHT22;383;48.766;9.270;2022-11-14T05:54:02;3.30;99.90
802;DHT22;383;48.766;9.270;2022-11-14T05:56:28;3.30;99.90
802;DHT22;383;48.766;9.270;2022-11-14T05:58:55;3.30;99.90
802;DHT22;383;48.766;9.270;2022-11-14T06:01:22;3.30;99.90
802;DHT22;383;48.766;9.270;2022-11-14T06:03:50;3.30;99.90
802;DHT22;383;48.766;9.270;2022-11-14T06:06:18;3.40;99.90
802;DHT22;383;48.766;9.270;2022-11-14T06:08:46;3.40;99.90
802;DHT22;383;48.766;9.270;2022-11-14T06:11:14;3.40;99.90
802;DHT22;383;48.766;9.270;2022-11-14T06:13:41;3.50;99.90
802;DHT22;383;48.766;9.270;2022-11-14T06:16:10;3.60;99.90
802;DHT22;383;48.766;9.270;2022-11-14T06:18:37;3.60;99.90
802;DHT22;383;48.766;9.270;2022-11-14T06:21:07;3.60;99.90
802;DHT22;383;48.766;9.270;2022-11-14T06:23:35;3.70;99.90
802;DHT22;383;48.766;9.270;2022-11-14T06:26:04;3.90;99.90
802;DHT22;383;48.766;9.270;2022-11-14T06:28:31;3.90;99.90
802;DHT22;383;48.766;9.270;2022-11-14T06:30:58;4.00;99.90
802;DHT22;383;48.766;9.270;2022-11-14T06:33:25;4.00;99.90
802;DHT22;383;48.766;9.270;2022-11-14T06:35:56;4.00;99.90
802;DHT22;383;48.766;9.270;2022-11-14T06:38:25;4.10;99.90
802;DHT22;383;48.766;9.270;2022-11-14T06:40:51;4.10;99.90
802;DHT22;383;48.766;9.270;2022-11-14T06:43:18;4.20;99.90
802;DHT22;383;48.766;9.270;2022-11-14T06:45:45;4.30;99.90
802;DHT22;383;48.766;9.270;2022-11-14T06:48:11;4.40;99.90
802;DHT22;383;48.766;9.270;2022-11-14T06:50:38;4.50;99.90
802;DHT22;383;48.766;9.270;2022-11-14T06:53:05;4.50;99.90
802;DHT22;383;48.766;9.270;2022-11-14T06:55:33;4.50;99.90
802;DHT22;383;48.766;9.270;2022-11-14T06:57:59;4.60;99.90
802;DHT22;383;48.766;9.270;2022-11-14T07:00:26;4.60;99.90
802;DHT22;383;48.766;9.270;2022-11-14T07:02:53;4.70;99.90
802;DHT22;383;48.766;9.270;2022-11-14T07:05:20;4.80;99.90
802;DHT22;383;48.766;9.270;2022-11-14T07:07:46;4.80;99.90
802;DHT22;383;48.766;9.270;2022-11-14T07:10:13;4.90;99.90
802;DHT22;383;48.766;9.270;2022-11-14T07:12:41;4.90;99.90
802;DHT22;383;48.766;9.270;2022-11-14T07:15:09;5.00;99.90
802;DHT22;383;48.766;9.270;2022-11-14T07:17:35;5.00;99.90
802;DHT22;383;48.766;9.270;2022-11-14T07:20:03;5.10;99.90
802;DHT22;383;48.766;9.270;2022-11-14T07:22:29;5.20;99.90
802;DHT22;383;48.766;9.270;2022-11-14T07:27:23;5.10;99.80
802;DHT22;383;48.766;9.270;2022-11-14T07:29:51;5.20;99.60
802;DHT22;383;48.766;9.270;2022-11-14T07:32:18;5.10;99.30
802;DHT22;383;48.766;9.270;2022-11-14T07:34:45;5.10;98.80
802;DHT22;383;48.766;9.270;2022-11-14T07:37:12;5.10;99.10
802;DHT22;383;48.766;9.270;2022-11-14T07:39:38;5.00;99.30
802;DHT22;383;48.766;9.270;2022-11-14T07:42:05;5.00;99.40
802;DHT22;383;48.766;9.270;2022-11-14T07:44:32;5.00;99.50
802;DHT22;383;48.766;9.270;2022-11-14T07:47:00;5.00;99.30
802;DHT22;383;48.766;9.270;2022-11-14T07:49:26;5.00;99.40
802;DHT22;383;48.766;9.270;2022-11-14T07:51:53;5.10;99.70
802;DHT22;383;48.766;9.270;2022-11-14T07:54:20;5.10;99.50
802;DHT22;383;48.766;9.270;2022-11-14T07:56:46;5.10;99.90
802;DHT22;383;48.766;9.270;2022-11-14T07:59:13;5.20;99.90
802;DHT22;383;48.766;9.270;2022-11-14T08:01:40;5.30;99.90
802;DHT22;383;48.766;9.270;2022-11-14T08:04:08;5.30;99.90
802;DHT22;383;48.766;9.270;2022-11-14T08:06:35;5.40;99.90
802;DHT22;383;48.766;9.270;2022-11-14T08:09:01;5.50;99.90
802;DHT22;383;48.766;9.270;2022-11-14T08:11:28;5.60;99.20
802;DHT22;383;48.766;9.270;2022-11-14T08:14:13;5.70;99.00
802;DHT22;383;48.766;9.270;2022-11-14T08:16:40;5.70;98.80
802;DHT22;383;48.766;9.270;2022-11-14T08:19:08;5.70;99.20
802;DHT22;383;48.766;9.270;2022-11-14T08:21:35;5.80;99.50
802;DHT22;383;48.766;9.270;2022-11-14T08:24:02;5.80;99.50
802;DHT22;383;48.766;9.270;2022-11-14T08:26:28;5.70;99.40
802;DHT22;383;48.766;9.270;2022-11-14T08:28:55;5.70;99.90
802;DHT22;383;48.766;9.270;2022-11-14T08:31:22;5.70;99.90
802;DHT22;383;48.766;9.270;2022-11-14T08:33:50;5.70;99.90
802;DHT22;383;48.766;9.270;2022-11-14T08:36:18;5.70;99.90
802;DHT22;383;48.766;9.270;2022-11-14T08:38:45;5.70;99.90
802;DHT22;383;48.766;9.270;2022-11-14T08:41:12;5.60;99.90
802;DHT22;383;48.766;9.270;2022-11-14T08:43:39;5.60;99.90
802;DHT22;383;48.766;9.270;2022-11-14T08:46:06;5.70;99.90
802;DHT22;383;48.766;9.270;2022-11-14T08:48:32;5.80;99.90
802;DHT22;383;48.766;9.270;2022-11-14T08:51:02;5.80;99.90
802;DHT22;383;48.766;9.270;2022-11-14T08:53:31;5.90;99.90
802;DHT22;383;48.766;9.270;2022-11-14T08:55:57;6.00;99.90
802;DHT22;383;48.766;9.270;2022-11-14T09:03:20;6.40;99.90
802;DHT22;383;48.766;9.270;2022-11-14T09:05:50;6.50;99.90
802;DHT22;383;48.766;9.270;2022-11-14T09:18:08;6.70;99.90
802;DHT22;383;48.766;9.270;2022-11-14T09:37:58;7.20;99.90
802;DHT22;383;48.766;9.270;2022-11-14T09:40:25;7.30;99.90
802;DHT22;383;48.766;9.270;2022-11-14T09:43:15;7.50;99.90
802;DHT22;383;48.766;9.270;2022-11-14T09:45:49;7.60;99.90
802;DHT22;383;48.766;9.270;2022-11-14T09:48:19;7.50;99.90
802;DHT22;383;48.766;9.270;2022-11-14T09:50:51;7.50;99.90
802;DHT22;383;48.766;9.270;2022-11-14T09:53:23;7.50;99.90
802;DHT22;383;48.766;9.270;2022-11-14T09:55:51;7.50;99.90
802;DHT22;383;48.766;9.270;2022-11-14T09:58:20;7.60;99.90
802;DHT22;383;48.766;9.270;2022-11-14T10:00:51;7.70;99.90
802;DHT22;383;48.766;9.270;2022-11-14T10:03:24;7.80;99.90
802;DHT22;383;48.766;9.270;2022-11-14T10:06:08;7.80;99.90
802;DHT22;383;48.766;9.270;2022-11-14T10:09:01;7.70;99.90
802;DHT22;383;48.766;9.270;2022-11-14T10:11:33;7.90;99.90
802;DHT22;383;48.766;9.270;2022-11-14T10:17:17;8.00;99.90
802;DHT22;383;48.766;9.270;2022-11-14T10:19:51;8.00;99.60
802;DHT22;383;48.766;9.270;2022-11-14T10:22:33;8.00;99.90
802;DHT22;383;48.766;9.270;2022-11-14T10:25:18;8.00;99.90
802;DHT22;383;48.766;9.270;2022-11-14T10:27:55;8.00;99.90
802;DHT22;383;48.766;9.270;2022-11-14T10:30:30;8.20;99.90
802;DHT22;383;48.766;9.270;2022-11-14T10:33:12;8.40;99.90
802;DHT22;383;48.766;9.270;2022-11-14T10:35:47;8.40;99.90
802;DHT22;383;48.766;9.270;2022-11-14T10:38:19;8.50;99.90
802;DHT22;383;48.766;9.270;2022-11-14T10:40:51;8.60;99.90
802;DHT22;383;48.766;9.270;2022-11-14T10:43:24;8.80;99.90
802;DHT22;383;48.766;9.270;2022-11-14T10:45:57;8.90;99.90
802;DHT22;383;48.766;9.270;2022-11-14T10:48:29;8.90;99.90
802;DHT22;383;48.766;9.270;2022-11-14T10:50:58;9.10;99.90
802;DHT22;383;48.766;9.270;2022-11-14T10:53:29;9.10;99.90
802;DHT22;383;48.766;9.270;2022-11-14T10:56:03;9.20;99.90
802;DHT22;383;48.766;9.270;2022-11-14T10:58:30;9.30;99.90
802;DHT22;383;48.766;9.270;2022-11-14T11:01:31;9.40;99.90
802;DHT22;383;48.766;9.270;2022-11-14T11:04:17;9.50;99.90
802;DHT22;383;48.766;9.270;2022-11-14T11:06:45;9.60;99.90
802;DHT22;383;48.766;9.270;2022-11-14T11:09:14;9.80;99.90
802;DHT22;383;48.766;9.270;2022-11-14T11:12:00;9.80;99.90
802;DHT22;383;48.766;9.270;2022-11-14T11:14:28;10.00;99.90
802;DHT22;383;48.766;9.270;2022-11-14T11:17:15;10.10;99.90
802;DHT22;383;48.766;9.270;2022-11-14T11:19:43;10.40;99.90
802;DHT22;383;48.766;9.270;2022-11-14T11:22:35;10.60;99.90
802;DHT22;383;48.766;9.270;2022-11-14T11:25:02;10.80;99.90
802;DHT22;383;48.766;9.270;2022-11-14T11:27:29;11.00;99.30
802;DHT22;383;48.766;9.270;2022-11-14T11:30:16;11.10;99.20
802;DHT22;383;48.766;9.270;2022-11-14T11:32:44;11.30;97.70
802;DHT22;383;48.766;9.270;2022-11-14T11:35:13;11.40;97.40
802;DHT22;383;48.766;9.270;2022-11-14T11:37:43;11.40;96.70
802;DHT22;383;48.766;9.270;2022-11-14T11:40:17;11.50;97.00
802;DHT22;383;48.766;9.270;2022-11-14T11:42:48;11.50;96.20
802;DHT22;383;48.766;9.270;2022-11-14T11:45:18;11.60;96.20
802;DHT22;383;48.766;9.270;2022-11-14T11:47:50;11.80;95.50
802;DHT22;383;48.766;9.270;2022-11-14T11:50:20;11.90;96.10
802;DHT22;383;48.766;9.270;2022-11-14T11:52:56;12.00;96.00
802;DHT22;383;48.766;9.270;2022-11-14T11:55:27;12.10;96.20
802;DHT22;383;48.766;9.270;2022-11-14T11:58:00;12.00;95.70
802;DHT22;383;48.766;9.270;2022-11-14T12:00:29;12.10;95.20
802;DHT22;383;48.766;9.270;2022-11-14T12:02:57;12.10;95.20
802;DHT22;383;48.766;9.270;2022-11-14T12:05:30;12.20;95.20
802;DHT22;383;48.766;9.270;2022-11-14T12:08:01;12.20;94.80
802;DHT22;383;48.766;9.270;2022-11-14T12:10:31;12.20;94.50
802;DHT22;383;48.766;9.270;2022-11-14T12:13:20;12.10;94.30
802;DHT22;383;48.766;9.270;2022-11-14T12:15:56;12.10;94.40
802;DHT22;383;48.766;9.270;2022-11-14T12:18:57;12.00;94.40
802;DHT22;383;48.766;9.270;2022-11-14T12:21:42;11.90;94.60
802;DHT22;383;48.766;9.270;2022-11-14T12:27:23;12.00;94.80
802;DHT22;383;48.766;9.270;2022-11-14T12:30:07;12.10;94.70
802;DHT22;383;48.766;9.270;2022-11-14T12:32:38;12.10;94.30
802;DHT22;383;48.766;9.270;2022-11-14T12:35:14;12.10;94.20
802;DHT22;383;48.766;9.270;2022-11-14T12:37:43;12.10;93.90
802;DHT22;383;48.766;9.270;2022-11-14T12:40:22;12.30;93.50
802;DHT22;383;48.766;9.270;2022-11-14T12:42:51;12.50;93.60
802;DHT22;383;48.766;9.270;2022-11-14T12:45:55;12.60;93.10
802;DHT22;383;48.766;9.270;2022-11-14T12:48:30;12.80;92.10
802;DHT22;383;48.766;9.270;2022-11-14T12:50:59;12.90;91.20
802;DHT22;383;48.766;9.270;2022-11-14T12:53:40;12.90;91.10
802;DHT22;383;48.766;9.270;2022-11-14T12:56:20;12.90;91.50
802;DHT22;383;48.766;9.270;2022-11-14T12:59:05;12.80;91.50
802;DHT22;383;48.766;9.270;2022-11-14T13:01:47;12.70;92.10
802;DHT22;383;48.766;9.270;2022-11-14T13:04:27;12.70;92.40
802;DHT22;383;48.766;9.270;2022-11-14T13:07:12;12.70;92.30
802;DHT22;383;48.766;9.270;2022-11-14T13:09:58;12.80;91.90
802;DHT22;383;48.766;9.270;2022-11-14T13:12:30;12.80;91.40
802;DHT22;383;48.766;9.270;2022-11-14T13:15:25;13.00;91.10
802;DHT22;383;48.766;9.270;2022-11-14T13:18:22;13.00;90.90
802;DHT22;383;48.766;9.270;2022-11-14T13:21:18;13.10;89.40
802;DHT22;383;48.766;9.270;2022-11-14T13:24:04;13.20;90.00
802;DHT22;383;48.766;9.270;2022-11-14T13:26:51;13.30;89.60
802;DHT22;383;48.766;9.270;2022-11-14T13:29:47;13.30;89.70
802;DHT22;383;48.766;9.270;2022-11-14T13:35:16;13.30;89.90
802;DHT22;383;48.766;9.270;2022-11-14T13:37:59;13.40;90.30
802;DHT22;383;48.766;9.270;2022-11-14T13:40:35;13.30;88.80
802;DHT22;383;48.766;9.270;2022-11-14T13:43:06;13.30;88.50
802;DHT22;383;48.766;9.270;2022-11-14T13:45:51;13.30;88.50
802;DHT22;383;48.766;9.270;2022-11-14T13:48:40;13.30;88.90
802;DHT22;383;48.766;9.270;2022-11-14T13:51:15;13.40;88.90
802;DHT22;383;48.766;9.270;2022-11-14T13:53:43;13.40;88.90
802;DHT22;383;48.766;9.270;2022-11-14T13:56:23;13.40;88.60
802;DHT22;383;48.766;9.270;2022-11-14T14:02:15;13.40;88.00
802;DHT22;383;48.766;9.270;2022-11-14T14:04:53;13.30;87.80
802;DHT22;383;48.766;9.270;2022-11-14T14:07:29;13.40;87.60
802;DHT22;383;48.766;9.270;2022-11-14T14:10:05;13.40;87.60
802;DHT22;383;48.766;9.270;2022-11-14T14:12:45;13.40;88.20
802;DHT22;383;48.766;9.270;2022-11-14T14:15:20;13.40;88.60
802;DHT22;383;48.766;9.270;2022-11-14T14:17:55;13.40;88.50
802;DHT22;383;48.766;9.270;2022-11-14T14:20:33;13.40;87.80
802;DHT22;383;48.766;9.270;2022-11-14T14:23:11;13.30;88.60
802;DHT22;383;48.766;9.270;2022-11-14T14:25:46;13.30;88.10
802;DHT22;383;48.766;9.270;2022-11-14T14:28:21;13.30;88.80
802;DHT22;383;48.766;9.270;2022-11-14T14:31:00;13.40;88.40
802;DHT22;383;48.766;9.270;2022-11-14T14:33:27;13.40;88.40
802;DHT22;383;48.766;9.270;2022-11-14T14:35:56;13.40;88.00
802;DHT22;383;48.766;9.270;2022-11-14T14:38:24;13.40;88.10
802;DHT22;383;48.766;9.270;2022-11-14T14:40:53;13.50;88.00
802;DHT22;383;48.766;9.270;2022-11-14T14:43:25;13.50;87.20
802;DHT22;383;48.766;9.270;2022-11-14T14:45:54;13.40;87.20
802;DHT22;383;48.766;9.270;2022-11-14T14:48:23;13.40;88.10
802;DHT22;383;48.766;9.270;2022-11-14T14:50:52;13.40;88.10
802;DHT22;383;48.766;9.270;2022-11-14T14:53:21;13.30;88.60
802;DHT22;383;48.766;9.270;2022-11-14T14:55:53;13.30;88.50
802;DHT22;383;48.766;9.270;2022-11-14T14:58:26;13.30;87.70
802;DHT22;383;48.766;9.270;2022-11-14T15:00:56;13.30;87.80
802;DHT22;383;48.766;9.270;2022-11-14T15:03:26;13.20;88.00
802;DHT22;383;48.766;9.270;2022-11-14T15:05:59;13.10;87.70
802;DHT22;383;48.766;9.270;2022-11-14T15:08:28;13.10;87.40
802;DHT22;383;48.766;9.270;2022-11-14T15:10:57;13.00;87.80
802;DHT22;383;48.766;9.270;2022-11-14T15:13:27;13.00;88.20
802;DHT22;383;48.766;9.270;2022-11-14T15:15:54;12.90;88.50
802;DHT22;383;48.766;9.270;2022-11-14T15:18:24;12.90;88.60
802;DHT22;383;48.766;9.270;2022-11-14T15:21:09;12.90;88.60
802;DHT22;383;48.766;9.270;2022-11-14T15:23:37;12.90;89.00
802;DHT22;383;48.766;9.270;2022-11-14T15:26:12;12.90;88.90
802;DHT22;383;48.766;9.270;2022-11-14T15:28:41;12.90;89.40
802;DHT22;383;48.766;9.270;2022-11-14T15:31:15;12.90;88.50
802;DHT22;383;48.766;9.270;2022-11-14T15:33:42;12.90;88.40
802;DHT22;383;48.766;9.270;2022-11-14T15:36:11;12.90;87.80
802;DHT22;383;48.766;9.270;2022-11-14T15:38:38;12.90;87.80
802;DHT22;383;48.766;9.270;2022-11-14T15:41:16;13.00;87.60
802;DHT22;383;48.766;9.270;2022-11-14T15:43:49;13.00;87.70
802;DHT22;383;48.766;9.270;2022-11-14T15:46:37;13.00;87.20
802;DHT22;383;48.766;9.270;2022-11-14T15:49:09;13.10;86.70
802;DHT22;383;48.766;9.270;2022-11-14T15:51:45;13.00;86.70
802;DHT22;383;48.766;9.270;2022-11-14T15:54:21;13.10;86.90
802;DHT22;383;48.766;9.270;2022-11-14T15:56:48;13.00;85.70
802;DHT22;383;48.766;9.270;2022-11-14T15:59:16;13.00;85.90
802;DHT22;383;48.766;9.270;2022-11-14T16:01:45;13.00;86.40
802;DHT22;383;48.766;9.270;2022-11-14T16:04:16;12.90;86.30
802;DHT22;383;48.766;9.270;2022-11-14T16:06:43;12.80;86.50
802;DHT22;383;48.766;9.270;2022-11-14T16:09:14;12.70;86.80
802;DHT22;383;48.766;9.270;2022-11-14T16:11:41;12.60;87.80
802;DHT22;383;48.766;9.270;2022-11-14T16:14:08;12.50;88.20
802;DHT22;383;48.766;9.270;2022-11-14T16:16:37;12.40;89.00
802;DHT22;383;48.766;9.270;2022-11-14T16:19:04;12.30;88.40
802;DHT22;383;48.766;9.270;2022-11-14T16:21:31;12.30;88.20
802;DHT22;383;48.766;9.270;2022-11-14T16:23:58;12.20;88.40
802;DHT22;383;48.766;9.270;2022-11-14T16:26:25;12.20;88.40
802;DHT22;383;48.766;9.270;2022-11-14T16:28:53;12.20;87.80
802;DHT22;383;48.766;9.270;2022-11-14T16:31:21;12.20;88.40
802;DHT22;383;48.766;9.270;2022-11-14T16:33:49;12.10;88.00
802;DHT22;383;48.766;9.270;2022-11-14T16:36:19;12.00;88.60
802;DHT22;383;48.766;9.270;2022-11-14T16:38:46;12.00;88.60
802;DHT22;383;48.766;9.270;2022-11-14T16:41:13;12.00;89.00
802;DHT22;383;48.766;9.270;2022-11-14T16:43:41;12.10;89.60
802;DHT22;383;48.766;9.270;2022-11-14T16:46:08;12.10;90.10
802;DHT22;383;48.766;9.270;2022-11-14T16:48:36;12.00;90.20
802;DHT22;383;48.766;9.270;2022-11-14T16:51:04;11.80;90.80
802;DHT22;383;48.766;9.270;2022-11-14T16:53:31;11.80;90.90
802;DHT22;383;48.766;9.270;2022-11-14T16:55:59;11.70;91.00
802;DHT22;383;48.766;9.270;2022-11-14T16:58:25;11.60;90.90
802;DHT22;383;48.766;9.270;2022-11-14T17:00:52;11.60;90.90
802;DHT22;383;48.766;9.270;2022-11-14T17:03:19;11.60;90.90
802;DHT22;383;48.766;9.270;2022-11-14T17:05:47;11.50;90.50
802;DHT22;383;48.766;9.270;2022-11-14T17:08:16;11.50;91.00
802;DHT22;383;48.766;9.270;2022-11-14T17:10:44;11.40;91.00
802;DHT22;383;48.766;9.270;2022-11-14T17:13:12;11.40;91.30
802;DHT22;383;48.766;9.270;2022-11-14T17:15:39;11.40;91.20
802;DHT22;383;48.766;9.270;2022-11-14T17:18:05;11.40;91.00
802;DHT22;383;48.766;9.270;2022-11-14T17:20:32;11.40;91.20
802;DHT22;383;48.766;9.270;2022-11-14T17:22:59;11.40;91.40
802;DHT22;383;48.766;9.270;2022-11-14T17:25:29;11.40;91.70
802;DHT22;383;48.766;9.270;2022-11-14T17:27:55;11.30;91.70
802;DHT22;383;48.766;9.270;2022-11-14T17:30:22;11.30;91.70
802;DHT22;383;48.766;9.270;2022-11-14T17:32:49;11.20;91.70
802;DHT22;383;48.766;9.270;2022-11-14T17:35:16;11.20;92.00
802;DHT22;383;48.766;9.270;2022-11-14T17:37:43;11.10;92.00
802;DHT22;383;48.766;9.270;2022-11-14T17:40:10;11.00;92.50
802;DHT22;383;48.766;9.270;2022-11-14T17:42:38;10.90;93.10
802;DHT22;383;48.766;9.270;2022-11-14T17:45:06;10.80;93.40
802;DHT22;383;48.766;9.270;2022-11-14T17:47:33;10.80;93.70
802;DHT22;383;48.766;9.270;2022-11-14T17:50:00;10.80;93.80
802;DHT22;383;48.766;9.270;2022-11-14T17:52:27;10.80;93.90
802;DHT22;383;48.766;9.270;2022-11-14T17:54:54;10.90;93.90
802;DHT22;383;48.766;9.270;2022-11-14T17:57:20;10.90;93.80
802;DHT22;383;48.766;9.270;2022-11-14T17:59:48;11.00;93.70
802;DHT22;383;48.766;9.270;2022-11-14T18:02:15;11.00;93.60
802;DHT22;383;48.766;9.270;2022-11-14T18:04:44;11.10;93.40
802;DHT22;383;48.766;9.270;2022-11-14T18:07:11;11.10;93.10
802;DHT22;383;48.766;9.270;2022-11-14T18:09:38;11.20;92.80
802;DHT22;383;48.766;9.270;2022-11-14T18:12:05;11.20;92.90
802;DHT22;383;48.766;9.270;2022-11-14T18:14:32;11.20;92.90
802;DHT22;383;48.766;9.270;2022-11-14T18:17:01;11.30;92.70
802;DHT22;383;48.766;9.270;2022-11-14T18:19:28;11.20;92.70
802;DHT22;383;48.766;9.270;2022-11-14T18:21:55;11.30;92.30
802;DHT22;383;48.766;9.270;2022-11-14T18:24:21;11.30;92.70
802;DHT22;383;48.766;9.270;2022-11-14T18:26:49;11.30;93.00
802;DHT22;383;48.766;9.270;2022-11-14T18:29:15;11.30;92.60
802;DHT22;383;48.766;9.270;2022-11-14T18:31:42;11.20;92.80
802;DHT22;383;48.766;9.270;2022-11-14T18:34:10;11.20;93.10
802;DHT22;383;48.766;9.270;2022-11-14T18:36:37;11.20;93.30
802;DHT22;383;48.766;9.270;2022-11-14T18:39:04;11.30;92.70
802;DHT22;383;48.766;9.270;2022-11-14T18:41:30;11.20;93.10
802;DHT22;383;48.766;9.270;2022-11-14T18:43:57;11.20;93.20
802;DHT22;383;48.766;9.270;2022-11-14T18:46:24;11.20;93.00
802;DHT22;383;48.766;9.270;2022-11-14T18:48:53;11.30;92.80
802;DHT22;383;48.766;9.270;2022-11-14T18:51:25;11.30;92.50
802;DHT22;383;48.766;9.270;2022-11-14T18:53:53;11.30;92.30
802;DHT22;383;48.766;9.270;2022-11-14T18:56:21;11.40;92.20
802;DHT22;383;48.766;9.270;2022-11-14T18:58:51;11.40;92.20
802;DHT22;383;48.766;9.270;2022-11-14T19:01:20;11.50;91.80
802;DHT22;383;48.766;9.270;2022-11-14T19:03:49;11.50;91.60
802;DHT22;383;48.766;9.270;2022-11-14T19:06:16;11.50;91.80
802;DHT22;383;48.766;9.270;2022-11-14T19:08:44;11.50;91.40